FTUS80 KABE 290521
KABE 290520Z 2906/3006 VRB02KT P6SM SCT250
     FM291300 24005KT P6SM SKC
     FM291700 24010KT P6SM FEW060
     FM292200 22006KT P6SM SCT060 SCT150
     FM300300 VRB04KT P6SM FEW250